Map

Track Data

SID SEASON NUMBER BASIN SUBBASIN NAME ISO_TIME NATURE LAT LON WMO_WIND WMO_PRES WMO_AGENCY TRACK_TYPE DIST2LAND LANDFALL IFLAG USA_AGENCY USA_ATCF_ID USA_LAT USA_LON USA_RECORD USA_STATUS USA_WIND USA_PRES USA_SSHS USA_R34_NE USA_R34_SE USA_R34_SW USA_R34_NW USA_R50_NE USA_R50_SE USA_R50_SW USA_R50_NW USA_R64_NE USA_R64_SE USA_R64_SW USA_R64_NW USA_POCI USA_ROCI USA_RMW USA_EYE TOKYO_LAT TOKYO_LON TOKYO_GRADE TOKYO_WIND TOKYO_PRES TOKYO_R50_DIR TOKYO_R50_LONG TOKYO_R50_SHORT TOKYO_R30_DIR TOKYO_R30_LONG TOKYO_R30_SHORT TOKYO_LAND CMA_LAT CMA_LON CMA_CAT CMA_WIND CMA_PRES HKO_LAT HKO_LON HKO_CAT HKO_WIND HKO_PRES NEWDELHI_LAT NEWDELHI_LON NEWDELHI_GRADE NEWDELHI_WIND NEWDELHI_PRES NEWDELHI_CI NEWDELHI_DP NEWDELHI_POCI REUNION_LAT REUNION_LON REUNION_TYPE REUNION_WIND REUNION_PRES REUNION_TNUM REUNION_CI REUNION_RMW REUNION_R34_NE REUNION_R34_SE REUNION_R34_SW REUNION_R34_NW REUNION_R50_NE REUNION_R50_SE REUNION_R50_SW REUNION_R50_NW REUNION_R64_NE REUNION_R64_SE REUNION_R64_SW REUNION_R64_NW BOM_LAT BOM_LON BOM_TYPE BOM_WIND BOM_PRES BOM_TNUM BOM_CI BOM_RMW BOM_R34_NE BOM_R34_SE BOM_R34_SW BOM_R34_NW BOM_R50_NE BOM_R50_SE BOM_R50_SW BOM_R50_NW BOM_R64_NE BOM_R64_SE BOM_R64_SW BOM_R64_NW BOM_ROCI BOM_POCI BOM_EYE BOM_POS_METHOD BOM_PRES_METHOD NADI_LAT NADI_LON NADI_CAT NADI_WIND NADI_PRES WELLINGTON_LAT WELLINGTON_LON WELLINGTON_WIND WELLINGTON_PRES DS824_LAT DS824_LON DS824_STAGE DS824_WIND DS824_PRES TD9636_LAT TD9636_LON TD9636_STAGE TD9636_WIND TD9636_PRES TD9635_LAT TD9635_LON TD9635_WIND TD9635_PRES TD9635_ROCI NEUMANN_LAT NEUMANN_LON NEUMANN_CLASS NEUMANN_WIND NEUMANN_PRES MLC_LAT MLC_LON MLC_CLASS MLC_WIND MLC_PRES USA_GUST BOM_GUST BOM_GUST_PER REUNION_GUST REUNION_GUST_PER USA_SEAHGT USA_SEARAD_NE USA_SEARAD_SE USA_SEARAD_SW USA_SEARAD_NW STORM_SPEED STORM_DIR
1954098S11076 1954 14 SI MM NOT_NAMED 1954-04-08 06:00:00 TS -10.6000 75.8000 main 1923 1923 O________OO___ jtwc_sh SH141954 -10.6000 75.8000 -1 -10.6000 75.8000 TC 25 -10.6000 75.8000 7 10 253
1954098S11076 1954 14 SI MM NOT_NAMED 1954-04-08 09:00:00 TS -10.7512 75.3023 main 1961 1961 P________PP___ SH141954 -10.7602 75.3001 -1 -10.7602 75.3001 TC 25 -10.7333 75.3066 7 10 254
1954098S11076 1954 14 SI MM NOT_NAMED 1954-04-08 12:00:00 TS -10.8877 74.8035 main 1989 1989 O________OP___ jtwc_sh SH141954 -10.9000 74.8000 -1 -10.9000 74.8000 TC 25 -10.8630 74.8103 7 10 256
1954098S11076 1954 14 SI MM NOT_NAMED 1954-04-08 15:00:00 TS -11.0003 74.3029 main 2017 1995 P________PP___ SH141954 -11.0074 74.2999 -1 -11.0074 74.2999 TC 25 -10.9862 74.3089 7 10 258
1954098S11076 1954 14 SI MM NOT_NAMED 1954-04-08 18:00:00 TS -11.1000 73.8000 main 1995 1943 O________OO___ jtwc_sh SH141954 -11.1000 73.8000 -1 -11.1000 73.8000 TC 25 -11.1000 73.8000 7 10 259
1954098S11076 1954 14 SI MM NOT_NAMED 1954-04-08 21:00:00 TS -11.2010 73.2945 main 1943 1891 P________PP___ SH141954 -11.1999 73.3000 -1 -11.1999 73.3000 TC 25 -11.2031 73.2836 7 10 259
1954098S11076 1954 14 SI MM NOT_NAMED 1954-04-09 00:00:00 TS -11.3000 72.7899 main 1891 1839 O________OP___ jtwc_sh SH141954 -11.3000 72.8000 -1 -11.3000 72.8000 TC 25 -11.2999 72.7698 7 10 259
1954098S11076 1954 14 SI MM NOT_NAMED 1954-04-09 03:00:00 TS -11.3989 72.2854 main 1839 1788 P________PP___ SH141954 -11.4000 72.2925 -1 -11.4000 72.2925 TC 25 -11.3968 72.2711 7 10 258
1954098S11076 1954 14 SI MM NOT_NAMED 1954-04-09 06:00:00 TS -11.5000 71.8000 main 1788 1745 O________OO___ jtwc_sh SH141954 -11.5000 71.8000 -1 -11.5000 71.8000 TC 25 -11.5000 71.8000 1 10 258
1954098S11076 1954 14 SI MM NOT_NAMED 1954-04-09 09:00:00 TS -11.6022 71.3380 main 1737 1694 P________PP___ SH141954 -11.5925 71.3275 -1 -11.5925 71.3275 TC 25 -11.6216 71.3591 1 9 256
1954098S11076 1954 14 SI MM NOT_NAMED 1954-04-09 12:00:00 TS -11.7166 70.9158 main 1694 1655 O________OP___ jtwc_sh SH141954 -11.7000 70.9000 -1 -11.7000 70.9000 TC 25 -11.7497 70.9475 1 8 252
1954098S11076 1954 14 SI MM NOT_NAMED 1954-04-09 15:00:00 TS -11.8592 70.5490 main 1646 1613 P________PP___ SH141954 -11.8499 70.5425 -1 -11.8499 70.5425 TC 25 -11.8779 70.5622 1 8 248
1954098S11076 1954 14 SI MM NOT_NAMED 1954-04-09 18:00:00 TS -12.0000 70.2000 main 1613 1571 O________OO___ jtwc_sh SH141954 -12.0000 70.2000 -1 -12.0000 70.2000 TC 25 -12.0000 70.2000 1 8 251
1954098S11076 1954 14 SI MM NOT_NAMED 1954-04-09 21:00:00 TS -12.1088 69.7983 main 1571 1529 P________PP___ SH141954 -12.1076 69.7850 -1 -12.1076 69.7850 TC 25 -12.1112 69.8250 1 8 255
1954098S11076 1954 14 SI MM NOT_NAMED 1954-04-10 00:00:00 TS -12.2050 69.4250 main 1529 1497 O________OP___ jtwc_sh SH141954 -12.2000 69.4000 -1 -12.2000 69.4000 TC 25 -12.2150 69.4750 1 7 253
1954098S11076 1954 14 SI MM NOT_NAMED 1954-04-10 03:00:00 TS -12.3087 69.1292 main 1497 1473 P________PP___ SH141954 -12.3074 69.1125 -1 -12.3074 69.1125 TC 25 -12.3113 69.1625 1 5 249
1954098S11076 1954 14 SI MM NOT_NAMED 1954-04-10 06:00:00 TS -12.4000 68.9000 main 1473 1449 O________OO___ jtwc_sh SH141954 -12.4000 68.9000 -1 -12.4000 68.9000 TC 25 -12.4000 68.9000 1 4 249
1954098S11076 1954 14 SI MM NOT_NAMED 1954-04-10 09:00:00 TS -12.4579 68.7231 main 1449 1440 P________PP___ SH141954 -12.4500 68.7350 -1 -12.4500 68.7350 TC 25 -12.4738 68.6995 1 3 250
1954098S11076 1954 14 SI MM NOT_NAMED 1954-04-10 12:00:00 TS -12.5141 68.5824 main 1440 1416 O________OP___ jtwc_sh SH141954 -12.5000 68.6000 -1 -12.5000 68.6000 TC 25 -12.5422 68.5473 1 3 243
1954098S11076 1954 14 SI MM NOT_NAMED 1954-04-10 15:00:00 TS -12.5998 68.4405 main 1416 1400 P________PP___ SH141954 -12.5925 68.4500 -1 -12.5925 68.4500 TC 30 -12.6145 68.4214 1 3 236
1954098S11076 1954 14 SI MM NOT_NAMED 1954-04-10 18:00:00 TS -12.7000 68.3000 main 1400 1385 O________OO___ jtwc_sh SH141954 -12.7000 68.3000 -1 -12.7000 68.3000 TC 35 -12.7000 68.3000 2 3 235
1954098S11076 1954 14 SI MM NOT_NAMED 1954-04-10 21:00:00 TS -12.7985 68.1513 main 1385 1361 P________PP___ SH141954 -12.7925 68.1500 -1 -12.7925 68.1500 TC 35 -12.8106 68.1540 2 4 234
1954098S11076 1954 14 SI MM NOT_NAMED 1954-04-11 00:00:00 TS -12.9116 68.0025 main 1361 1346 O________OP___ jtwc_sh SH141954 -12.9000 68.0000 -1 -12.9000 68.0000 TC 35 -12.9349 68.0075 2 4 228
1954098S11076 1954 14 SI MM NOT_NAMED 1954-04-11 03:00:00 TS -13.0556 67.8524 main 1339 1315 P________PP___ SH141954 -13.0500 67.8500 -1 -13.0500 67.8500 TC 35 -13.0668 67.8572 2 4 225
1954098S11076 1954 14 SI MM NOT_NAMED 1954-04-11 06:00:00 TS -13.2000 67.7000 main 1315 1299 O________OO___ jtwc_sh SH141954 -13.2000 67.7000 -1 -13.2000 67.7000 TC 35 -13.2000 67.7000 2 4 230
1954098S11076 1954 14 SI MM NOT_NAMED 1954-04-11 09:00:00 TS -13.3029 67.5463 main 1291 1275 P________PP___ SH141954 -13.3000 67.5574 -1 -13.3000 67.5574 TC 35 -13.3088 67.5240 2 4 236
1954098S11076 1954 14 SI MM NOT_NAMED 1954-04-11 12:00:00 TS -13.4067 67.3808 main 1275 1251 O________OP___ jtwc_sh SH141954 -13.4000 67.4000 -1 -13.4000 67.4000 TC 35 -13.4200 67.3424 2 4 236
1954098S11076 1954 14 SI MM NOT_NAMED 1954-04-11 15:00:00 TS -13.5388 67.1882 main 1251 1221 P________PP___ SH141954 -13.5350 67.2000 -1 -13.5350 67.2000 TC 35 -13.5463 67.1646 2 5 232
1954098S11076 1954 14 SI MM NOT_NAMED 1954-04-11 18:00:00 TS -13.7000 67.0000 main 1221 1190 O________OO___ jtwc_sh SH141954 -13.7000 67.0000 -1 -13.7000 67.0000 TC 35 -13.7000 67.0000 2 5 224
1954098S11076 1954 14 SI MM NOT_NAMED 1954-04-11 21:00:00 TS -13.8942 66.8368 main 1190 1168 P________PP___ SH141954 -13.8850 66.8350 -1 -13.8850 66.8350 TC 35 -13.9125 66.8404 2 5 215
1954098S11076 1954 14 SI MM NOT_NAMED 1954-04-12 00:00:00 TS -14.1167 66.6992 main 1168 1139 O________OP___ jtwc_sh SH141954 -14.1000 66.7000 -1 -14.1000 66.7000 TC 35 -14.1500 66.6977 2 5 208
1954098S11076 1954 14 SI MM NOT_NAMED 1954-04-12 03:00:00 TS -14.3725 66.5787 main 1139 1118 P________PP___ SH141954 -14.3650 66.5775 -1 -14.3650 66.5775 TC 35 -14.3875 66.5811 2 5 202
1954098S11076 1954 14 SI MM NOT_NAMED 1954-04-12 06:00:00 TS -14.6000 66.5000 main 1118 1111 O________OO___ jtwc_sh SH141954 -14.6000 66.5000 -1 -14.6000 66.5000 TC 35 -14.6000 66.5000 2 4 195
1954098S11076 1954 14 SI MM NOT_NAMED 1954-04-12 09:00:00 TS -14.7265 66.4752 main 1111 1105 P________PP___ SH141954 -14.7150 66.4850 -1 -14.7150 66.4850 TC 35 -14.7496 66.4558 2 2 0
1954098S11076 1954 14 SI MM NOT_NAMED 1954-04-12 12:00:00 TS -14.8241 66.4825 main 1105 1099 O________OP___ jtwc_sh SH141954 -14.8000 66.5000 -1 -14.8000 66.5000 TC 35 -14.8724 66.4474 2 2 175
1954098S11076 1954 14 SI MM NOT_NAMED 1954-04-12 15:00:00 TS -14.9563 66.4834 main 1093 1087 P________PP___ SH141954 -14.9425 66.4925 -1 -14.9425 66.4925 TC 35 -14.9840 66.4652 2 3 175
1954098S11076 1954 14 SI MM NOT_NAMED 1954-04-12 18:00:00 TS -15.1000 66.5000 main 1087 1081 O________OO___ jtwc_sh SH141954 -15.1000 66.5000 -1 -15.1000 66.5000 TC 35 -15.1000 66.5000 2 3 169
1954098S11076 1954 14 SI MM NOT_NAMED 1954-04-12 21:00:00 TS -15.2442 66.5428 main 1081 1075 P________PP___ SH141954 -15.2500 66.5425 -1 -15.2500 66.5425 TC 30 -15.2325 66.5434 2 3 162
1954098S11076 1954 14 SI MM NOT_NAMED 1954-04-13 00:00:00 TS -15.3933 66.5975 main 1079 1073 O________OP___ jtwc_sh SH141954 -15.4000 66.6000 -1 -15.4000 66.6000 TC 25 -15.3800 66.5925 2 3 161
1954098S11076 1954 14 SI MM NOT_NAMED 1954-04-13 03:00:00 TS -15.5458 66.6501 main 1082 1071 P________PP___ SH141954 -15.5500 66.6525 -1 -15.5500 66.6525 TC 25 -15.5375 66.6453 2 3 163
1954098S11076 1954 14 SI MM NOT_NAMED 1954-04-13 06:00:00 TS -15.7000 66.7000 main 1071 O________OO___ jtwc_sh SH141954 -15.7000 66.7000 -1 -15.7000 66.7000 TC 25 -15.7000 66.7000 1 3 167

About IBTrACS Database

This database is a web-friendly format of International Best Track Archive for Climate Stewardship (IBTrACS), a global best track data archive curated by NOAA dating back to 1842.

Updated: 2021-12-03